Crew | Aerofun Virtual



 METAR AND TAF INFORMATION
METAR FOR EFKU
ADDS - METARS form results

(1946 UTC 21 July 2019)
Data provider http://aviationweather.gov/metar/data/
 
METAR text: EFKU 211920Z AUTO 16003KT CAVOK 21/10 Q1017
Conditions at: EFKU (KUOPIO (MIL/CIV), FI) observed 1920 UTC 21 July 2019
Temperature: 21.0°C (70°F)
Dewpoint: 10.0°C (50°F) [RH = 49%]
Pressure (altimeter): 30.03 inches Hg (1017.0 mb)
Winds: from the SSE (160 degrees) at 3 MPH (3 knots; 1.5 m/s)
Visibility: 6 or more miles (10+ km)
Ceiling: ceiling and visibility are OK
Clouds: unknown
Weather: no significant weather observed at this time

METAR text: EFKU 211850Z AUTO 15003KT CAVOK 22/10 Q1017
Conditions at: EFKU (KUOPIO (MIL/CIV), FI) observed 1850 UTC 21 July 2019
Temperature: 22.0°C (72°F)
Dewpoint: 10.0°C (50°F) [RH = 46%]
Pressure (altimeter): 30.03 inches Hg (1017.0 mb)
Winds: from the SSE (150 degrees) at 3 MPH (3 knots; 1.5 m/s)
Visibility: 6 or more miles (10+ km)
Ceiling: ceiling and visibility are OK
Clouds: unknown
Weather: no significant weather observed at this time

Forecast for: EFKU (KUOPIO (MIL/CIV), FI)
Text: TAF EFKU 211725Z 2118/2218 VRB02KT CAVOK
Forecast period: 1800 UTC 21 July 2019 to 1800 UTC 22 July 2019
Forecast type: FROM: standard forecast or significant change
Winds: variable direction winds at 2 MPH (2 knots; 1.0 m/s)
Visibility: 6 or more miles 10+ km)
Ceiling: unknown
Clouds: missing
Weather: NSW  (no significant weather)
Text: TEMPO 2209/2212 FEW050TCU
Forecast period: 0900 to 1200 UTC 22 July 2019
Forecast type: TEMPORARY: The following changes expected for less than half the time period
Visibility: missing
Ceiling: at least 12,000 feet AGL
Clouds: few clouds at 5000 feet AGL
Weather: no significant weather forecast for this period

 AIRPORT MAP

 RUNWAY INFORMATION
Runway 06 Runway length 4921 ft Runway width 148 ft
Runway elevation 304 ft Runway displaced threshold 0 ft Runway heading 67
Runway 24 Runway length 4921 ft Runway width 148 ft
Runway elevation 284 ft Runway displaced threshold 0 ft Runway heading 247
Runway 15 Runway length 9186 ft Runway width 197 ft
Runway elevation 306 ft Runway displaced threshold 0 ft Runway heading 157
Runway 33 Runway length 9186 ft Runway width 197 ft
Runway elevation 316 ft Runway displaced threshold 0 ft Runway heading 337

 AIRPORT FREQUENCIES
Type APP Name APP Frequency 130.6 MHZ
Type ATIS Name ATIS Frequency 113 MHZ
Type TWR Name TWR Frequency 120.15 MHZ

 AIRPORT NEAR NAVIGATION AIDS
Type NDB Name Kurki Frequency 310 KHZ
Type VOR-DME Name Vehkaa Frequency 113000 KHZ